sensor_id;sensor_type;location;lat;lon;timestamp;pressure;altitude;pressure_sealevel;temperature;humidity
55010;BME280;40903;51.638;7.528;2023-05-14T00:02:04;101297.22;;;11.03;100.00
55010;BME280;40903;51.638;7.528;2023-05-14T00:04:30;101295.06;;;11.00;100.00
55010;BME280;40903;51.638;7.528;2023-05-14T00:06:55;101289.06;;;10.98;100.00
55010;BME280;40903;51.638;7.528;2023-05-14T00:09:20;101286.38;;;10.93;100.00
55010;BME280;40903;51.638;7.528;2023-05-14T00:11:45;101288.00;;;10.89;100.00
55010;BME280;40903;51.638;7.528;2023-05-14T00:14:10;101280.38;;;10.86;100.00
55010;BME280;40903;51.638;7.528;2023-05-14T00:16:36;101280.94;;;10.83;100.00
55010;BME280;40903;51.638;7.528;2023-05-14T00:19:01;101280.66;;;10.79;100.00
55010;BME280;40903;51.638;7.528;2023-05-14T00:21:26;101276.06;;;10.75;100.00
55010;BME280;40903;51.638;7.528;2023-05-14T00:23:52;101276.34;;;10.73;100.00
55010;BME280;40903;51.638;7.528;2023-05-14T00:26:17;101279.09;;;10.68;100.00
55010;BME280;40903;51.638;7.528;2023-05-14T00:28:42;101277.19;;;10.64;100.00
55010;BME280;40903;51.638;7.528;2023-05-14T00:31:07;101278.84;;;10.60;100.00
55010;BME280;40903;51.638;7.528;2023-05-14T00:33:33;101280.47;;;10.56;100.00
55010;BME280;40903;51.638;7.528;2023-05-14T00:35:59;101275.56;;;10.53;100.00
55010;BME280;40903;51.638;7.528;2023-05-14T00:38:24;101269.56;;;10.51;100.00
55010;BME280;40903;51.638;7.528;2023-05-14T00:40:51;101275.59;;;10.48;100.00
55010;BME280;40903;51.638;7.528;2023-05-14T00:43:18;101275.31;;;10.44;100.00
55010;BME280;40903;51.638;7.528;2023-05-14T00:45:43;101276.41;;;10.43;100.00
55010;BME280;40903;51.638;7.528;2023-05-14T00:48:09;101277.78;;;10.41;100.00
55010;BME280;40903;51.638;7.528;2023-05-14T00:50:34;101273.72;;;10.38;100.00
55010;BME280;40903;51.638;7.528;2023-05-14T00:52:59;101269.06;;;10.39;100.00
55010;BME280;40903;51.638;7.528;2023-05-14T00:55:25;101269.06;;;10.39;100.00
55010;BME280;40903;51.638;7.528;2023-05-14T00:57:50;101253.53;;;10.39;100.00
55010;BME280;40903;51.638;7.528;2023-05-14T01:00:17;101263.59;;;10.39;100.00
55010;BME280;40903;51.638;7.528;2023-05-14T01:02:42;101261.16;;;10.37;100.00
55010;BME280;40903;51.638;7.528;2023-05-14T01:05:07;101261.69;;;10.34;100.00
55010;BME280;40903;51.638;7.528;2023-05-14T01:10:12;101260.88;;;10.29;100.00
55010;BME280;40903;51.638;7.528;2023-05-14T01:12:39;101267.97;;;10.25;100.00
55010;BME280;40903;51.638;7.528;2023-05-14T01:15:10;101267.44;;;10.23;100.00
55010;BME280;40903;51.638;7.528;2023-05-14T01:17:37;101269.09;;;10.19;100.00
55010;BME280;40903;51.638;7.528;2023-05-14T01:20:03;101258.75;;;10.16;100.00
55010;BME280;40903;51.638;7.528;2023-05-14T01:22:28;101267.44;;;10.13;100.00
55010;BME280;40903;51.638;7.528;2023-05-14T01:24:53;101268.00;;;10.10;100.00
55010;BME280;40903;51.638;7.528;2023-05-14T01:27:30;101268.56;;;10.07;100.00
55010;BME280;40903;51.638;7.528;2023-05-14T01:32:28;101258.22;;;10.04;100.00
55010;BME280;40903;51.638;7.528;2023-05-14T01:34:54;101257.66;;;10.02;100.00
55010;BME280;40903;51.638;7.528;2023-05-14T01:37:22;101252.72;;;9.99;100.00
55010;BME280;40903;51.638;7.528;2023-05-14T01:39:48;101247.81;;;9.96;100.00
55010;BME280;40903;51.638;7.528;2023-05-14T01:42:15;101253.81;;;9.93;100.00
55010;BME280;40903;51.638;7.528;2023-05-14T01:44:40;101252.44;;;9.90;100.00
55010;BME280;40903;51.638;7.528;2023-05-14T01:47:05;101252.72;;;9.89;100.00
55010;BME280;40903;51.638;7.528;2023-05-14T01:49:31;101254.91;;;9.87;100.00
55010;BME280;40903;51.638;7.528;2023-05-14T01:51:56;101263.91;;;9.82;100.00
55010;BME280;40903;51.638;7.528;2023-05-14T01:54:21;101265.25;;;9.80;100.00
55010;BME280;40903;51.638;7.528;2023-05-14T01:56:47;101257.63;;;9.77;100.00
55010;BME280;40903;51.638;7.528;2023-05-14T01:59:12;101256.53;;;9.73;100.00
55010;BME280;40903;51.638;7.528;2023-05-14T02:01:37;101251.66;;;9.70;100.00
55010;BME280;40903;51.638;7.528;2023-05-14T02:04:02;101253.53;;;9.69;100.00
55010;BME280;40903;51.638;7.528;2023-05-14T02:06:27;101250.53;;;9.66;100.00
55010;BME280;40903;51.638;7.528;2023-05-14T02:08:53;101250.81;;;9.65;100.00
55010;BME280;40903;51.638;7.528;2023-05-14T02:11:18;101247.56;;;9.63;100.00
55010;BME280;40903;51.638;7.528;2023-05-14T02:13:43;101250.78;;;9.60;100.00
55010;BME280;40903;51.638;7.528;2023-05-14T02:16:09;101245.63;;;9.58;100.00
55010;BME280;40903;51.638;7.528;2023-05-14T02:18:34;101241.81;;;9.59;100.00
55010;BME280;40903;51.638;7.528;2023-05-14T02:20:59;101243.47;;;9.60;100.00
55010;BME280;40903;51.638;7.528;2023-05-14T02:23:24;101235.53;;;9.59;100.00
55010;BME280;40903;51.638;7.528;2023-05-14T02:25:50;101244.53;;;9.59;100.00
55010;BME280;40903;51.638;7.528;2023-05-14T02:28:15;101244.00;;;9.57;100.00
55010;BME280;40903;51.638;7.528;2023-05-14T02:30:40;101249.44;;;9.57;100.00
55010;BME280;40903;51.638;7.528;2023-05-14T02:33:05;101244.00;;;9.57;100.00
55010;BME280;40903;51.638;7.528;2023-05-14T02:35:30;101239.66;;;9.56;100.00
55010;BME280;40903;51.638;7.528;2023-05-14T02:37:56;101232.81;;;9.54;100.00
55010;BME280;40903;51.638;7.528;2023-05-14T02:40:21;101237.44;;;9.53;100.00
55010;BME280;40903;51.638;7.528;2023-05-14T02:42:46;101234.72;;;9.53;100.00
55010;BME280;40903;51.638;7.528;2023-05-14T02:45:12;101239.91;;;9.55;100.00
55010;BME280;40903;51.638;7.528;2023-05-14T02:47:37;101231.47;;;9.56;100.00
55010;BME280;40903;51.638;7.528;2023-05-14T02:50:02;101231.47;;;9.56;100.00
55010;BME280;40903;51.638;7.528;2023-05-14T02:52:30;101228.47;;;9.58;100.00
55010;BME280;40903;51.638;7.528;2023-05-14T02:54:55;101235.53;;;9.59;100.00
55010;BME280;40903;51.638;7.528;2023-05-14T02:57:20;101235.53;;;9.59;100.00
55010;BME280;40903;51.638;7.528;2023-05-14T02:59:45;101236.38;;;9.59;100.00
55010;BME280;40903;51.638;7.528;2023-05-14T03:02:11;101241.81;;;9.59;100.00
55010;BME280;40903;51.638;7.528;2023-05-14T03:04:36;101229.84;;;9.60;100.00
55010;BME280;40903;51.638;7.528;2023-05-14T03:07:01;101229.31;;;9.58;100.00
55010;BME280;40903;51.638;7.528;2023-05-14T03:09:27;101231.19;;;9.58;100.00
55010;BME280;40903;51.638;7.528;2023-05-14T03:11:52;101233.38;;;9.56;100.00
55010;BME280;40903;51.638;7.528;2023-05-14T03:14:17;101235.28;;;9.55;100.00
55010;BME280;40903;51.638;7.528;2023-05-14T03:16:43;101237.44;;;9.53;100.00
55010;BME280;40903;51.638;7.528;2023-05-14T03:19:08;101238.81;;;9.51;100.00
55010;BME280;40903;51.638;7.528;2023-05-14T03:21:33;101230.13;;;9.49;100.00
55010;BME280;40903;51.638;7.528;2023-05-14T03:23:59;101223.84;;;9.48;100.00
55010;BME280;40903;51.638;7.528;2023-05-14T03:26:24;101220.03;;;9.49;100.00
55010;BME280;40903;51.638;7.528;2023-05-14T03:28:49;101217.31;;;9.49;100.00
55010;BME280;40903;51.638;7.528;2023-05-14T03:31:14;101230.91;;;9.49;100.00
55010;BME280;40903;51.638;7.528;2023-05-14T03:33:40;101227.66;;;9.47;100.00
55010;BME280;40903;51.638;7.528;2023-05-14T03:36:05;101221.41;;;9.47;100.00
55010;BME280;40903;51.638;7.528;2023-05-14T03:38:30;101226.56;;;9.48;100.00
55010;BME280;40903;51.638;7.528;2023-05-14T03:40:56;101221.91;;;9.44;100.00
55010;BME280;40903;51.638;7.528;2023-05-14T03:43:22;101226.56;;;9.43;100.00
55010;BME280;40903;51.638;7.528;2023-05-14T03:45:47;101227.09;;;9.40;100.00
55010;BME280;40903;51.638;7.528;2023-05-14T03:48:16;101221.91;;;9.39;100.00
55010;BME280;40903;51.638;7.528;2023-05-14T03:50:41;101218.38;;;9.38;100.00
55010;BME280;40903;51.638;7.528;2023-05-14T03:53:07;101222.19;;;9.37;100.00
55010;BME280;40903;51.638;7.528;2023-05-14T03:55:32;101219.75;;;9.36;100.00
55010;BME280;40903;51.638;7.528;2023-05-14T03:57:57;101215.66;;;9.33;100.00
55010;BME280;40903;51.638;7.528;2023-05-14T04:00:22;101212.38;;;9.31;100.00
55010;BME280;40903;51.638;7.528;2023-05-14T04:02:47;101215.09;;;9.31;100.00
55010;BME280;40903;51.638;7.528;2023-05-14T04:05:13;101216.19;;;9.30;100.00
55010;BME280;40903;51.638;7.528;2023-05-14T04:07:38;101212.94;;;9.28;100.00
55010;BME280;40903;51.638;7.528;2023-05-14T04:10:03;101214.56;;;9.29;100.00
55010;BME280;40903;51.638;7.528;2023-05-14T04:12:29;101218.38;;;9.28;100.00
55010;BME280;40903;51.638;7.528;2023-05-14T04:14:55;101218.38;;;9.28;100.00
55010;BME280;40903;51.638;7.528;2023-05-14T04:17:21;101217.28;;;9.29;100.00
55010;BME280;40903;51.638;7.528;2023-05-14T04:19:46;101214.56;;;9.29;100.00
55010;BME280;40903;51.638;7.528;2023-05-14T04:22:11;101210.75;;;9.30;100.00
55010;BME280;40903;51.638;7.528;2023-05-14T04:24:36;101213.22;;;9.32;100.00
55010;BME280;40903;51.638;7.528;2023-05-14T04:27:02;101210.19;;;9.33;100.00
55010;BME280;40903;51.638;7.528;2023-05-14T04:29:27;101218.66;;;9.37;100.00
55010;BME280;40903;51.638;7.528;2023-05-14T04:31:52;101212.13;;;9.38;100.00
55010;BME280;40903;51.638;7.528;2023-05-14T04:34:18;101210.50;;;9.42;100.00
55010;BME280;40903;51.638;7.528;2023-05-14T04:36:43;101197.97;;;9.46;100.00
55010;BME280;40903;51.638;7.528;2023-05-14T04:39:08;101204.53;;;9.50;100.00
55010;BME280;40903;51.638;7.528;2023-05-14T04:41:34;101196.59;;;9.53;100.00
55010;BME280;40903;51.638;7.528;2023-05-14T04:43:59;101202.88;;;9.59;100.00
55010;BME280;40903;51.638;7.528;2023-05-14T04:46:25;101196.34;;;9.65;100.00
55010;BME280;40903;51.638;7.528;2023-05-14T04:48:51;101200.97;;;9.74;100.00
55010;BME280;40903;51.638;7.528;2023-05-14T04:51:16;101199.88;;;9.80;100.00
55010;BME280;40903;51.638;7.528;2023-05-14T04:53:41;101208.84;;;9.90;100.00
55010;BME280;40903;51.638;7.528;2023-05-14T04:56:06;101209.69;;;10.01;100.00
55010;BME280;40903;51.638;7.528;2023-05-14T04:58:32;101200.97;;;10.14;100.00
55010;BME280;40903;51.638;7.528;2023-05-14T05:00:58;101209.09;;;10.29;100.00
55010;BME280;40903;51.638;7.528;2023-05-14T05:03:23;101212.63;;;10.44;100.00
55010;BME280;40903;51.638;7.528;2023-05-14T05:05:48;101211.47;;;10.60;100.00
55010;BME280;40903;51.638;7.528;2023-05-14T05:08:13;101215.19;;;10.79;100.00
55010;BME280;40903;51.638;7.528;2023-05-14T05:10:39;101222.47;;;10.99;100.00
55010;BME280;40903;51.638;7.528;2023-05-14T05:13:04;101217.47;;;11.16;100.00
55010;BME280;40903;51.638;7.528;2023-05-14T05:15:29;101220.63;;;11.33;100.00
55010;BME280;40903;51.638;7.528;2023-05-14T05:17:54;101220.84;;;11.46;100.00
55010;BME280;40903;51.638;7.528;2023-05-14T05:20:20;101210.91;;;11.55;100.00
55010;BME280;40903;51.638;7.528;2023-05-14T05:22:45;101215.00;;;11.63;100.00
55010;BME280;40903;51.638;7.528;2023-05-14T05:25:10;101204.00;;;11.73;100.00
55010;BME280;40903;51.638;7.528;2023-05-14T05:27:36;101211.00;;;11.83;100.00
55010;BME280;40903;51.638;7.528;2023-05-14T05:30:02;101218.56;;;11.96;100.00
55010;BME280;40903;51.638;7.528;2023-05-14T05:32:28;101220.13;;;12.02;100.00
55010;BME280;40903;51.638;7.528;2023-05-14T05:34:53;101223.91;;;12.06;100.00
55010;BME280;40903;51.638;7.528;2023-05-14T05:37:18;101230.72;;;12.09;100.00
55010;BME280;40903;51.638;7.528;2023-05-14T05:39:44;101220.63;;;12.09;100.00
55010;BME280;40903;51.638;7.528;2023-05-14T05:42:09;101223.06;;;12.11;100.00
55010;BME280;40903;51.638;7.528;2023-05-14T05:44:34;101218.09;;;12.13;100.00
55010;BME280;40903;51.638;7.528;2023-05-14T05:47:00;101214.00;;;12.15;100.00
55010;BME280;40903;51.638;7.528;2023-05-14T05:49:25;101220.75;;;12.23;100.00
55010;BME280;40903;51.638;7.528;2023-05-14T05:51:50;101221.53;;;12.28;100.00
55010;BME280;40903;51.638;7.528;2023-05-14T05:54:15;101226.06;;;12.38;100.00
55010;BME280;40903;51.638;7.528;2023-05-14T05:56:41;101220.78;;;12.46;100.00
55010;BME280;40903;51.638;7.528;2023-05-14T05:59:06;101214.13;;;12.52;100.00
55010;BME280;40903;51.638;7.528;2023-05-14T06:01:32;101228.22;;;12.64;100.00
55010;BME280;40903;51.638;7.528;2023-05-14T06:03:58;101229.75;;;12.75;100.00
55010;BME280;40903;51.638;7.528;2023-05-14T06:06:23;101228.44;;;12.91;100.00
55010;BME280;40903;51.638;7.528;2023-05-14T06:08:48;101228.00;;;13.08;100.00
55010;BME280;40903;51.638;7.528;2023-05-14T06:11:14;101230.13;;;13.29;100.00
55010;BME280;40903;51.638;7.528;2023-05-14T06:13:41;101222.59;;;13.40;100.00
55010;BME280;40903;51.638;7.528;2023-05-14T06:16:06;101232.50;;;13.54;100.00
55010;BME280;40903;51.638;7.528;2023-05-14T06:18:31;101229.75;;;13.73;100.00
55010;BME280;40903;51.638;7.528;2023-05-14T06:20:57;101236.91;;;13.87;99.18
55010;BME280;40903;51.638;7.528;2023-05-14T06:23:24;101237.75;;;14.01;97.50
55010;BME280;40903;51.638;7.528;2023-05-14T06:25:50;101238.81;;;14.05;95.97
55010;BME280;40903;51.638;7.528;2023-05-14T06:28:16;101240.22;;;14.21;95.13
55010;BME280;40903;51.638;7.528;2023-05-14T06:30:41;101240.34;;;14.43;94.51
55010;BME280;40903;51.638;7.528;2023-05-14T06:33:06;101237.91;;;14.55;92.78
55010;BME280;40903;51.638;7.528;2023-05-14T06:35:32;101239.88;;;14.68;91.69
55010;BME280;40903;51.638;7.528;2023-05-14T06:37:58;101228.97;;;14.76;88.59
55010;BME280;40903;51.638;7.528;2023-05-14T06:40:24;101236.91;;;14.91;87.67
55010;BME280;40903;51.638;7.528;2023-05-14T06:42:49;101236.69;;;15.15;89.68
55010;BME280;40903;51.638;7.528;2023-05-14T06:45:15;101233.63;;;15.30;86.75
55010;BME280;40903;51.638;7.528;2023-05-14T06:47:40;101225.41;;;15.52;87.49
55010;BME280;40903;51.638;7.528;2023-05-14T06:50:05;101230.97;;;15.60;84.57
55010;BME280;40903;51.638;7.528;2023-05-14T06:52:31;101230.00;;;15.78;85.10
55010;BME280;40903;51.638;7.528;2023-05-14T06:55:00;101233.31;;;15.88;83.18
55010;BME280;40903;51.638;7.528;2023-05-14T06:57:25;101230.50;;;16.02;82.91
55010;BME280;40903;51.638;7.528;2023-05-14T06:59:50;101228.53;;;16.24;84.41
55010;BME280;40903;51.638;7.528;2023-05-14T07:02:16;101227.56;;;16.51;82.54
55010;BME280;40903;51.638;7.528;2023-05-14T07:04:41;101230.91;;;16.70;80.99
55010;BME280;40903;51.638;7.528;2023-05-14T07:07:06;101236.47;;;16.87;80.55
55010;BME280;40903;51.638;7.528;2023-05-14T07:09:31;101229.38;;;17.03;79.04
55010;BME280;40903;51.638;7.528;2023-05-14T07:11:57;101223.56;;;17.13;74.54
55010;BME280;40903;51.638;7.528;2023-05-14T07:14:22;101235.41;;;17.30;76.58
55010;BME280;40903;51.638;7.528;2023-05-14T07:16:47;101232.22;;;17.45;77.36
55010;BME280;40903;51.638;7.528;2023-05-14T07:19:12;101226.22;;;17.60;75.87
55010;BME280;40903;51.638;7.528;2023-05-14T07:21:40;101222.81;;;17.63;74.09
55010;BME280;40903;51.638;7.528;2023-05-14T07:24:06;101219.25;;;17.63;75.45
55010;BME280;40903;51.638;7.528;2023-05-14T07:26:31;101212.28;;;17.74;76.26
55010;BME280;40903;51.638;7.528;2023-05-14T07:28:56;101218.13;;;17.81;74.31
55010;BME280;40903;51.638;7.528;2023-05-14T07:31:21;101208.34;;;18.08;75.33
55010;BME280;40903;51.638;7.528;2023-05-14T07:33:46;101208.78;;;18.36;76.42
55010;BME280;40903;51.638;7.528;2023-05-14T07:36:12;101209.06;;;18.51;72.04
55010;BME280;40903;51.638;7.528;2023-05-14T07:38:37;101206.72;;;18.62;73.29
55010;BME280;40903;51.638;7.528;2023-05-14T07:41:03;101205.03;;;18.78;71.55
55010;BME280;40903;51.638;7.528;2023-05-14T07:43:28;101209.41;;;19.08;72.94
55010;BME280;40903;51.638;7.528;2023-05-14T07:45:53;101199.19;;;19.29;69.28
55010;BME280;40903;51.638;7.528;2023-05-14T07:48:22;101192.28;;;19.43;69.19
55010;BME280;40903;51.638;7.528;2023-05-14T07:50:48;101192.13;;;19.60;65.90
55010;BME280;40903;51.638;7.528;2023-05-14T07:53:13;101194.41;;;19.79;66.01
55010;BME280;40903;51.638;7.528;2023-05-14T07:55:38;101199.56;;;20.00;64.69
55010;BME280;40903;51.638;7.528;2023-05-14T07:58:04;101198.00;;;20.11;64.40
55010;BME280;40903;51.638;7.528;2023-05-14T08:00:29;101198.31;;;20.42;64.59
55010;BME280;40903;51.638;7.528;2023-05-14T08:02:54;101200.16;;;20.38;60.45
55010;BME280;40903;51.638;7.528;2023-05-14T08:05:20;101186.75;;;20.64;66.19
55010;BME280;40903;51.638;7.528;2023-05-14T08:07:45;101192.69;;;20.75;62.45
55010;BME280;40903;51.638;7.528;2023-05-14T08:10:10;101197.19;;;20.91;61.50
55010;BME280;40903;51.638;7.528;2023-05-14T08:12:36;101199.16;;;21.03;59.55
55010;BME280;40903;51.638;7.528;2023-05-14T08:15:01;101199.25;;;21.18;59.17
55010;BME280;40903;51.638;7.528;2023-05-14T08:17:26;101202.00;;;21.42;58.69
55010;BME280;40903;51.638;7.528;2023-05-14T08:19:52;101204.13;;;21.61;56.20
55010;BME280;40903;51.638;7.528;2023-05-14T08:22:18;101206.09;;;21.72;55.95
55010;BME280;40903;51.638;7.528;2023-05-14T08:24:43;101201.84;;;21.90;56.08
55010;BME280;40903;51.638;7.528;2023-05-14T08:27:08;101200.63;;;22.03;54.29
55010;BME280;40903;51.638;7.528;2023-05-14T08:29:34;101203.31;;;22.00;53.42
55010;BME280;40903;51.638;7.528;2023-05-14T08:31:59;101207.25;;;21.99;51.07
55010;BME280;40903;51.638;7.528;2023-05-14T08:34:24;101200.47;;;22.11;53.25
55010;BME280;40903;51.638;7.528;2023-05-14T08:36:50;101202.69;;;22.06;50.61
55010;BME280;40903;51.638;7.528;2023-05-14T08:39:15;101215.66;;;22.29;51.65
55010;BME280;40903;51.638;7.528;2023-05-14T08:41:40;101203.38;;;22.30;51.35
55010;BME280;40903;51.638;7.528;2023-05-14T08:44:12;101200.25;;;22.47;50.86
55010;BME280;40903;51.638;7.528;2023-05-14T08:46:37;101202.78;;;22.52;47.38
55010;BME280;40903;51.638;7.528;2023-05-14T08:49:05;101196.78;;;22.66;49.16
55010;BME280;40903;51.638;7.528;2023-05-14T08:51:32;101193.19;;;22.81;49.58
55010;BME280;40903;51.638;7.528;2023-05-14T08:53:58;101194.94;;;22.89;47.22
55010;BME280;40903;51.638;7.528;2023-05-14T08:56:26;101189.28;;;23.01;46.51
55010;BME280;40903;51.638;7.528;2023-05-14T08:58:51;101192.88;;;23.01;46.20
55010;BME280;40903;51.638;7.528;2023-05-14T09:01:17;101181.31;;;23.15;47.01
55010;BME280;40903;51.638;7.528;2023-05-14T09:03:42;101171.66;;;23.28;48.53
55010;BME280;40903;51.638;7.528;2023-05-14T09:06:08;101183.47;;;23.40;46.70
55010;BME280;40903;51.638;7.528;2023-05-14T09:08:34;101176.28;;;23.58;48.66
55010;BME280;40903;51.638;7.528;2023-05-14T09:11:00;101165.72;;;23.83;46.69
55010;BME280;40903;51.638;7.528;2023-05-14T09:13:25;101167.16;;;24.18;47.68
55010;BME280;40903;51.638;7.528;2023-05-14T09:15:50;101173.00;;;24.32;45.29
55010;BME280;40903;51.638;7.528;2023-05-14T09:18:16;101181.50;;;24.39;43.79
55010;BME280;40903;51.638;7.528;2023-05-14T09:20:42;101179.63;;;24.24;43.41
55010;BME280;40903;51.638;7.528;2023-05-14T09:23:07;101189.25;;;24.08;42.48
55010;BME280;40903;51.638;7.528;2023-05-14T09:25:32;101181.91;;;24.18;43.46
55010;BME280;40903;51.638;7.528;2023-05-14T09:27:58;101170.84;;;24.44;43.93
55010;BME280;40903;51.638;7.528;2023-05-14T09:30:23;101171.63;;;24.64;42.23
55010;BME280;40903;51.638;7.528;2023-05-14T09:32:48;101178.81;;;24.46;41.29
55010;BME280;40903;51.638;7.528;2023-05-14T09:35:20;101164.22;;;24.52;42.94
55010;BME280;40903;51.638;7.528;2023-05-14T09:37:46;101167.16;;;24.59;41.52
55010;BME280;40903;51.638;7.528;2023-05-14T09:40:12;101163.78;;;24.73;42.23
55010;BME280;40903;51.638;7.528;2023-05-14T09:42:38;101173.81;;;24.77;40.07
55010;BME280;40903;51.638;7.528;2023-05-14T09:45:03;101177.28;;;24.71;38.33
55010;BME280;40903;51.638;7.528;2023-05-14T09:47:29;101165.59;;;24.62;39.26
55010;BME280;40903;51.638;7.528;2023-05-14T09:49:55;101157.16;;;24.81;38.46
55010;BME280;40903;51.638;7.528;2023-05-14T09:52:23;101161.53;;;24.82;38.82
55010;BME280;40903;51.638;7.528;2023-05-14T09:54:49;101159.97;;;24.84;37.21
55010;BME280;40903;51.638;7.528;2023-05-14T09:57:15;101166.69;;;25.06;39.17
55010;BME280;40903;51.638;7.528;2023-05-14T09:59:40;101155.38;;;25.21;40.56
55010;BME280;40903;51.638;7.528;2023-05-14T10:02:06;101154.72;;;25.31;38.92
55010;BME280;40903;51.638;7.528;2023-05-14T10:04:36;101151.13;;;25.31;39.93
55010;BME280;40903;51.638;7.528;2023-05-14T10:07:01;101147.00;;;25.21;38.89
55010;BME280;40903;51.638;7.528;2023-05-14T10:09:27;101144.63;;;24.97;37.81
55010;BME280;40903;51.638;7.528;2023-05-14T10:11:54;101144.53;;;24.90;37.64
55010;BME280;40903;51.638;7.528;2023-05-14T10:14:40;101143.22;;;25.10;38.37
55010;BME280;40903;51.638;7.528;2023-05-14T10:17:07;101142.75;;;25.31;37.91
55010;BME280;40903;51.638;7.528;2023-05-14T10:19:41;101148.69;;;25.29;38.02
55010;BME280;40903;51.638;7.528;2023-05-14T10:22:08;101140.84;;;25.38;38.46
55010;BME280;40903;51.638;7.528;2023-05-14T10:24:35;101144.88;;;25.41;36.68
55010;BME280;40903;51.638;7.528;2023-05-14T10:27:02;101143.06;;;25.55;36.26
55010;BME280;40903;51.638;7.528;2023-05-14T10:29:32;101136.50;;;25.74;37.42
55010;BME280;40903;51.638;7.528;2023-05-14T10:31:57;101140.69;;;25.90;34.60
55010;BME280;40903;51.638;7.528;2023-05-14T10:34:42;101128.16;;;26.10;37.77
55010;BME280;40903;51.638;7.528;2023-05-14T10:37:10;101125.38;;;26.14;37.23
55010;BME280;40903;51.638;7.528;2023-05-14T10:42:09;101119.66;;;26.43;38.15
55010;BME280;40903;51.638;7.528;2023-05-14T10:44:34;101123.53;;;26.28;35.42
55010;BME280;40903;51.638;7.528;2023-05-14T10:47:00;101124.47;;;26.03;36.98
55010;BME280;40903;51.638;7.528;2023-05-14T10:49:26;101122.47;;;26.03;34.97
55010;BME280;40903;51.638;7.528;2023-05-14T10:51:52;101108.84;;;26.38;37.07
55010;BME280;40903;51.638;7.528;2023-05-14T10:54:17;101102.84;;;26.39;36.73
55010;BME280;40903;51.638;7.528;2023-05-14T10:56:44;101102.31;;;26.67;39.20
55010;BME280;40903;51.638;7.528;2023-05-14T10:59:09;101104.31;;;26.73;35.88
55010;BME280;40903;51.638;7.528;2023-05-14T11:01:35;101108.53;;;26.50;35.86
55010;BME280;40903;51.638;7.528;2023-05-14T11:04:04;101105.13;;;25.87;35.13
55010;BME280;40903;51.638;7.528;2023-05-14T11:06:29;101112.75;;;25.57;35.24
55010;BME280;40903;51.638;7.528;2023-05-14T11:08:55;101101.19;;;25.92;36.72
55010;BME280;40903;51.638;7.528;2023-05-14T11:11:21;101087.88;;;26.18;40.36
55010;BME280;40903;51.638;7.528;2023-05-14T11:13:49;101109.41;;;26.14;34.95
55010;BME280;40903;51.638;7.528;2023-05-14T11:16:14;101104.91;;;26.06;32.76
55010;BME280;40903;51.638;7.528;2023-05-14T11:18:42;101094.66;;;26.17;34.09
55010;BME280;40903;51.638;7.528;2023-05-14T11:21:07;101096.44;;;25.92;35.88
55010;BME280;40903;51.638;7.528;2023-05-14T11:23:33;101091.81;;;26.10;34.57
55010;BME280;40903;51.638;7.528;2023-05-14T11:25:58;101084.41;;;26.32;36.60
55010;BME280;40903;51.638;7.528;2023-05-14T11:28:24;101085.22;;;26.35;35.55
55010;BME280;40903;51.638;7.528;2023-05-14T11:30:51;101086.41;;;25.91;35.21
55010;BME280;40903;51.638;7.528;2023-05-14T11:33:16;101077.50;;;25.82;36.83
55010;BME280;40903;51.638;7.528;2023-05-14T11:35:42;101074.63;;;26.12;37.25
55010;BME280;40903;51.638;7.528;2023-05-14T11:38:13;101075.56;;;26.26;36.12
55010;BME280;40903;51.638;7.528;2023-05-14T11:40:38;101067.84;;;26.13;34.50
55010;BME280;40903;51.638;7.528;2023-05-14T11:43:03;101060.53;;;26.44;38.25
55010;BME280;40903;51.638;7.528;2023-05-14T11:45:29;101064.34;;;26.73;35.97
55010;BME280;40903;51.638;7.528;2023-05-14T11:47:54;101064.06;;;26.92;35.73
55010;BME280;40903;51.638;7.528;2023-05-14T11:50:20;101062.31;;;26.66;37.51
55010;BME280;40903;51.638;7.528;2023-05-14T11:52:45;101072.75;;;26.73;34.08
55010;BME280;40903;51.638;7.528;2023-05-14T11:55:12;101068.84;;;26.88;34.67
55010;BME280;40903;51.638;7.528;2023-05-14T11:57:37;101067.56;;;26.75;35.20
55010;BME280;40903;51.638;7.528;2023-05-14T12:00:03;101062.09;;;26.42;34.59
55010;BME280;40903;51.638;7.528;2023-05-14T12:02:31;101054.66;;;26.60;36.49
55010;BME280;40903;51.638;7.528;2023-05-14T12:04:58;101044.03;;;26.86;38.28
55010;BME280;40903;51.638;7.528;2023-05-14T12:07:27;101046.72;;;26.65;36.17
55010;BME280;40903;51.638;7.528;2023-05-14T12:09:53;101047.09;;;26.60;36.04
55010;BME280;40903;51.638;7.528;2023-05-14T12:12:21;101053.06;;;26.59;38.08
55010;BME280;40903;51.638;7.528;2023-05-14T12:14:47;101051.94;;;26.67;35.99
55010;BME280;40903;51.638;7.528;2023-05-14T12:19:41;101035.53;;;26.72;37.05
55010;BME280;40903;51.638;7.528;2023-05-14T12:22:07;101038.28;;;26.62;37.10
55010;BME280;40903;51.638;7.528;2023-05-14T12:24:32;101038.00;;;26.77;36.28
55010;BME280;40903;51.638;7.528;2023-05-14T12:26:59;101033.63;;;26.83;36.12
55010;BME280;40903;51.638;7.528;2023-05-14T12:29:25;101026.13;;;27.05;38.27
55010;BME280;40903;51.638;7.528;2023-05-14T12:31:50;101024.63;;;27.18;34.73
55010;BME280;40903;51.638;7.528;2023-05-14T12:34:15;101016.59;;;27.16;34.71
55010;BME280;40903;51.638;7.528;2023-05-14T12:36:41;101017.88;;;27.40;36.06
55010;BME280;40903;51.638;7.528;2023-05-14T12:39:06;101014.53;;;27.10;37.31
55010;BME280;40903;51.638;7.528;2023-05-14T12:41:32;101024.81;;;26.81;37.04
55010;BME280;40903;51.638;7.528;2023-05-14T12:43:58;101018.88;;;26.36;35.30
55010;BME280;40903;51.638;7.528;2023-05-14T12:46:24;101025.91;;;26.09;36.77
55010;BME280;40903;51.638;7.528;2023-05-14T12:48:49;101018.41;;;25.80;36.35
55010;BME280;40903;51.638;7.528;2023-05-14T12:51:14;101024.56;;;25.56;37.35